Time;durP1;ratioP1;P1;durP2;ratioP2;P2;SDS_P1;SDS_P2;PMS_P1;PMS_P2;Temp;Humidity;BMP_temperature;BMP_pressure;BME280_temperature;BME280_humidity;BME280_pressure;Samples;Min_cycle;Max_cycle;Signal;HPM_P1;HPM_P2
2023/12/02 00:02:23;;;;;;;11.55;7.70;;;0.70;99.90;;;;;;4980008;28;20046;-61
2023/12/02 00:04:49;;;;;;;12.90;7.85;;;0.60;99.90;;;;;;4965963;28;20053;-60
2023/12/02 00:07:19;;;;;;;13.27;7.60;;;0.60;99.90;;;;;;4969041;28;20042;-59
2023/12/02 00:09:46;;;;;;;11.98;8.43;;;0.60;99.90;;;;;;4970435;28;20045;-61
2023/12/02 00:12:13;;;;;;;13.57;8.68;;;0.50;99.90;;;;;;4977956;28;20162;-61
2023/12/02 00:14:40;;;;;;;13.07;8.80;;;0.60;99.90;;;;;;4968357;28;20126;-61
2023/12/02 00:17:06;;;;;;;12.73;8.20;;;0.60;99.90;;;;;;4975928;28;20056;-60
2023/12/02 00:19:33;;;;;;;13.90;8.73;;;0.50;99.90;;;;;;4977159;28;20058;-60
2023/12/02 00:22:00;;;;;;;11.93;8.10;;;0.50;99.90;;;;;;4974426;28;20400;-61
2023/12/02 00:24:27;;;;;;;12.63;8.13;;;0.50;99.90;;;;;;4966546;28;20415;-61
2023/12/02 00:26:54;;;;;;;12.80;8.07;;;0.50;99.90;;;;;;4971242;28;20093;-60
2023/12/02 00:29:20;;;;;;;16.02;8.80;;;0.50;99.90;;;;;;4967174;28;20116;-61
2023/12/02 00:31:47;;;;;;;9.95;5.88;;;0.50;99.90;;;;;;4972871;28;20502;-61
2023/12/02 00:34:14;;;;;;;15.82;8.65;;;0.60;99.90;;;;;;4966157;28;20039;-61
2023/12/02 00:36:45;;;;;;;13.02;8.40;;;0.60;99.90;;;;;;4966350;28;20053;-60
2023/12/02 00:39:12;;;;;;;13.18;8.75;;;0.60;99.90;;;;;;4973808;28;20141;-61
2023/12/02 00:41:39;;;;;;;12.57;8.07;;;0.60;99.90;;;;;;4980572;28;20042;-61
2023/12/02 00:44:05;;;;;;;11.48;6.47;;;0.60;99.90;;;;;;4972847;28;20049;-60
2023/12/02 00:46:32;;;;;;;12.77;8.25;;;0.60;99.90;;;;;;4981561;28;20042;-61
2023/12/02 00:48:59;;;;;;;12.27;8.45;;;0.60;99.90;;;;;;4980324;28;20054;-60
2023/12/02 00:51:26;;;;;;;;;;;0.50;99.90;;;;;;4981290;28;20121;-61
2023/12/02 00:53:53;;;;;;;13.48;8.65;;;0.60;99.90;;;;;;4971986;28;19921;-60
2023/12/02 00:56:20;;;;;;;13.13;8.15;;;0.60;99.90;;;;;;4986311;28;20053;-59
2023/12/02 00:58:47;;;;;;;14.52;9.30;;;0.60;99.90;;;;;;4969893;28;20039;-61
2023/12/02 01:01:14;;;;;;;12.73;7.93;;;0.60;99.90;;;;;;4974534;28;20058;-60
2023/12/02 01:03:41;;;;;;;12.60;8.48;;;0.60;99.90;;;;;;4973785;28;20400;-60
2023/12/02 01:06:08;;;;;;;13.00;8.27;;;0.60;99.90;;;;;;4974170;28;20043;-61
2023/12/02 01:08:35;;;;;;;12.57;7.95;;;0.60;99.90;;;;;;4975148;28;20070;-60
2023/12/02 01:11:02;;;;;;;13.80;8.82;;;0.60;99.90;;;;;;4962593;28;20046;-60
2023/12/02 01:13:29;;;;;;;13.75;8.80;;;0.60;99.90;;;;;;4973527;28;20135;-61
2023/12/02 01:15:56;;;;;;;12.63;8.68;;;0.60;99.90;;;;;;4977769;28;20101;-60
2023/12/02 01:18:23;;;;;;;13.65;8.85;;;0.60;99.90;;;;;;4971480;28;20062;-61
2023/12/02 01:20:50;;;;;;;15.13;9.60;;;0.60;99.90;;;;;;4943946;28;20496;-61
2023/12/02 01:23:17;;;;;;;13.48;8.70;;;0.60;99.90;;;;;;4982016;28;20090;-60
2023/12/02 01:25:44;;;;;;;13.88;8.45;;;0.60;99.90;;;;;;4967173;28;20054;-61
2023/12/02 01:28:11;;;;;;;10.43;6.68;;;0.60;99.90;;;;;;4981037;28;20043;-62
2023/12/02 01:30:38;;;;;;;13.60;9.18;;;0.60;99.90;;;;;;4987783;28;20042;-61
2023/12/02 01:33:05;;;;;;;13.57;8.38;;;0.60;99.90;;;;;;4975377;28;20459;-61
2023/12/02 01:35:31;;;;;;;13.68;8.70;;;0.60;99.90;;;;;;4973349;28;20459;-61
2023/12/02 01:37:58;;;;;;;14.38;9.52;;;0.60;99.90;;;;;;4973159;28;20061;-61
2023/12/02 01:40:25;;;;;;;17.55;9.30;;;0.60;99.90;;;;;;4980253;28;20074;-61
2023/12/02 01:42:52;;;;;;;15.05;9.13;;;0.60;99.90;;;;;;4969974;28;20122;-61
2023/12/02 01:45:19;;;;;;;13.10;8.68;;;0.60;99.90;;;;;;4979445;28;20556;-61
2023/12/02 01:47:47;;;;;;;15.00;9.10;;;0.50;99.90;;;;;;4977070;28;20046;-61
2023/12/02 01:50:17;;;;;;;16.95;9.70;;;0.60;99.90;;;;;;4983472;28;20043;-59
2023/12/02 01:52:44;;;;;;;14.65;8.75;;;0.50;99.90;;;;;;4960088;28;20105;-61
2023/12/02 01:55:11;;;;;;;14.90;8.70;;;0.60;99.90;;;;;;4985577;28;20397;-59
2023/12/02 01:57:38;;;;;;;11.20;7.18;;;0.60;99.90;;;;;;4983230;28;20492;-61
2023/12/02 02:00:05;;;;;;;;;;;0.60;99.90;;;;;;4978882;28;20043;-59
2023/12/02 02:02:37;;;;;;;15.77;9.05;;;0.60;99.90;;;;;;4981858;28;19921;-58
2023/12/02 02:05:04;;;;;;;14.02;8.57;;;0.60;99.90;;;;;;4981700;28;20034;-60
2023/12/02 02:07:31;;;;;;;15.02;9.30;;;0.60;99.90;;;;;;4982900;28;20484;-62
2023/12/02 02:10:00;;;;;;;15.18;8.57;;;0.50;99.90;;;;;;4971627;28;20046;-60
2023/12/02 02:12:27;;;;;;;14.77;9.10;;;0.50;99.90;;;;;;4969533;28;20480;-60
2023/12/02 02:14:54;;;;;;;13.65;8.48;;;0.50;99.90;;;;;;4973210;28;20046;-61
2023/12/02 02:17:21;;;;;;;16.15;9.13;;;0.50;99.90;;;;;;4972597;28;20159;-60
2023/12/02 02:19:47;;;;;;;12.98;8.38;;;0.50;99.90;;;;;;4965036;28;20042;-60
2023/12/02 02:22:14;;;;;;;14.68;9.05;;;0.50;99.90;;;;;;4970829;28;20039;-60
2023/12/02 02:24:41;;;;;;;13.85;9.05;;;0.50;99.90;;;;;;4975085;28;20057;-62
2023/12/02 02:27:08;;;;;;;10.15;6.38;;;0.50;99.90;;;;;;4965718;28;20382;-61
2023/12/02 02:29:43;;;;;;;17.60;8.30;;;0.50;99.90;;;;;;4965060;28;20057;-61
2023/12/02 02:32:10;;;;;;;15.23;9.13;;;0.50;99.90;;;;;;4969624;28;20058;-61
2023/12/02 02:34:40;;;;;;;16.80;9.23;;;0.50;99.90;;;;;;4967527;28;20045;-59
2023/12/02 02:37:07;;;;;;;12.32;7.63;;;0.50;99.90;;;;;;4972438;28;20046;-61
2023/12/02 02:39:34;;;;;;;14.88;8.27;;;0.50;99.90;;;;;;4952877;28;20411;-61
2023/12/02 02:42:05;;;;;;;16.77;8.40;;;0.50;99.90;;;;;;4969120;28;20066;-62
2023/12/02 02:44:33;;;;;;;12.38;8.05;;;0.50;99.90;;;;;;4980275;28;20117;-61
2023/12/02 02:47:00;;;;;;;14.02;8.32;;;0.60;99.90;;;;;;4971429;28;20074;-61
2023/12/02 02:49:27;;;;;;;12.55;7.43;;;0.60;99.90;;;;;;4974835;28;20049;-61
2023/12/02 02:51:54;;;;;;;;;;;0.60;99.90;;;;;;4975912;28;20129;-60
2023/12/02 02:54:21;;;;;;;12.85;7.78;;;0.60;99.90;;;;;;4975018;28;19932;-61
2023/12/02 02:56:48;;;;;;;17.20;8.00;;;0.60;99.90;;;;;;4970439;28;20038;-61
2023/12/02 02:59:15;;;;;;;14.30;8.13;;;0.60;99.90;;;;;;4972902;28;20113;-62
2023/12/02 03:01:47;;;;;;;12.73;7.95;;;0.60;99.90;;;;;;4969081;28;20046;-61
2023/12/02 03:04:14;;;;;;;11.00;7.38;;;0.50;99.90;;;;;;4967827;28;20103;-59
2023/12/02 03:06:41;;;;;;;10.77;7.13;;;0.60;99.90;;;;;;4968829;28;20050;-61
2023/12/02 03:09:11;;;;;;;14.40;7.65;;;0.50;99.90;;;;;;4978186;28;20048;-61
2023/12/02 03:11:38;;;;;;;12.15;8.27;;;0.50;99.90;;;;;;4975557;28;20051;-61
2023/12/02 03:14:05;;;;;;;14.30;8.10;;;0.50;99.90;;;;;;4989063;22;20045;-60
2023/12/02 03:16:32;;;;;;;14.85;7.78;;;0.50;99.90;;;;;;4997954;28;20049;-62
2023/12/02 03:19:00;;;;;;;;;;;0.50;99.90;;;;;;4984987;28;20046;-62
2023/12/02 03:21:27;;;;;;;9.70;5.38;;;0.40;99.90;;;;;;5006904;28;19925;-61
2023/12/02 03:23:54;;;;;;;13.57;7.70;;;0.50;99.90;;;;;;4992281;28;20053;-62
2023/12/02 03:26:23;;;;;;;13.07;7.82;;;0.50;99.90;;;;;;5005885;28;20056;-62
2023/12/02 03:28:50;;;;;;;11.57;7.85;;;0.50;99.90;;;;;;4995211;28;20054;-62
2023/12/02 03:31:16;;;;;;;13.80;7.55;;;0.50;99.90;;;;;;5005722;28;20406;-61
2023/12/02 03:33:43;;;;;;;13.32;7.55;;;0.50;99.90;;;;;;4975044;28;20051;-61
2023/12/02 03:36:10;;;;;;;12.65;7.97;;;0.40;99.90;;;;;;4993812;28;20056;-60
2023/12/02 03:38:38;;;;;;;11.57;7.55;;;0.50;99.90;;;;;;4997905;28;20049;-61
2023/12/02 03:41:05;;;;;;;12.35;7.55;;;0.50;99.90;;;;;;5010632;28;20585;-61
2023/12/02 03:43:32;;;;;;;12.30;7.43;;;0.50;99.90;;;;;;4984877;28;20485;-61
2023/12/02 03:46:07;;;;;;;13.63;7.90;;;0.40;99.90;;;;;;4981234;28;20034;-60
2023/12/02 03:48:34;;;;;;;14.10;8.07;;;0.50;99.90;;;;;;4983263;28;20046;-60
2023/12/02 03:51:01;;;;;;;14.80;7.75;;;0.40;99.90;;;;;;5006022;28;20073;-60
2023/12/02 03:53:30;;;;;;;12.73;7.93;;;0.40;99.90;;;;;;4986747;28;20443;-59
2023/12/02 03:55:57;;;;;;;13.85;8.20;;;0.40;99.90;;;;;;4984968;28;20149;-60
2023/12/02 03:58:24;;;;;;;13.23;7.57;;;0.40;99.90;;;;;;5006275;28;20033;-61
2023/12/02 04:00:51;;;;;;;14.48;7.30;;;0.40;99.90;;;;;;5013271;28;20050;-61
2023/12/02 04:03:18;;;;;;;13.38;7.65;;;0.40;99.90;;;;;;5015137;28;20385;-61
2023/12/02 04:05:45;;;;;;;14.00;7.72;;;0.40;99.90;;;;;;4985377;28;20066;-60
2023/12/02 04:08:12;;;;;;;13.85;7.30;;;0.40;99.90;;;;;;5003256;28;20483;-61
2023/12/02 04:10:39;;;;;;;12.57;7.68;;;0.40;99.90;;;;;;5001906;28;20046;-61
2023/12/02 04:13:05;;;;;;;12.75;7.85;;;0.40;99.90;;;;;;4993623;28;20054;-61
2023/12/02 04:15:32;;;;;;;11.57;7.28;;;0.40;99.90;;;;;;5010851;28;20268;-62
2023/12/02 04:17:59;;;;;;;15.95;7.63;;;0.40;99.90;;;;;;4993343;28;20034;-61
2023/12/02 04:20:26;;;;;;;13.63;7.78;;;0.40;99.90;;;;;;4986478;28;20100;-61
2023/12/02 04:22:53;;;;;;;11.40;6.22;;;0.30;99.90;;;;;;5001254;28;20049;-59
2023/12/02 04:25:21;;;;;;;12.55;7.30;;;0.30;99.90;;;;;;5005958;28;20158;-61
2023/12/02 04:27:47;;;;;;;12.48;7.38;;;0.30;99.90;;;;;;4991374;28;20052;-61
2023/12/02 04:30:14;;;;;;;10.65;6.80;;;0.40;99.90;;;;;;5004197;28;20053;-60
2023/12/02 04:32:41;;;;;;;13.23;6.78;;;0.40;99.90;;;;;;4979998;28;20074;-62
2023/12/02 04:35:08;;;;;;;11.50;7.20;;;0.40;99.90;;;;;;5009586;28;20078;-62
2023/12/02 04:37:35;;;;;;;;;;;0.40;99.90;;;;;;5002008;28;20147;-62
2023/12/02 04:40:04;;;;;;;14.38;7.85;;;0.30;99.90;;;;;;5004387;28;19956;-61
2023/12/02 04:42:31;;;;;;;14.35;8.35;;;0.30;99.90;;;;;;5002107;28;20042;-61
2023/12/02 04:44:58;;;;;;;15.40;7.65;;;0.40;99.90;;;;;;5004067;28;20035;-60
2023/12/02 04:47:25;;;;;;;12.30;7.18;;;0.30;99.90;;;;;;4963932;28;20547;-62
2023/12/02 04:49:51;;;;;;;11.98;6.78;;;0.30;99.90;;;;;;4991852;28;20046;-62
2023/12/02 04:52:18;;;;;;;12.73;7.68;;;0.30;99.90;;;;;;4979593;28;20042;-61
2023/12/02 04:54:45;;;;;;;12.00;6.88;;;0.30;99.90;;;;;;4983866;28;20050;-62
2023/12/02 04:57:12;;;;;;;14.02;8.40;;;0.30;99.90;;;;;;4981625;28;20037;-61
2023/12/02 04:59:38;;;;;;;12.52;7.63;;;0.30;99.90;;;;;;5003866;28;20050;-61
2023/12/02 05:02:06;;;;;;;13.80;8.27;;;0.30;99.90;;;;;;4986471;28;20047;-61
2023/12/02 05:04:32;;;;;;;;;;;0.30;99.90;;;;;;4967121;28;20038;-60
2023/12/02 05:06:59;;;;;;;19.83;8.70;;;0.30;99.90;;;;;;4978664;28;19926;-61
2023/12/02 05:09:26;;;;;;;13.73;7.93;;;0.30;99.90;;;;;;5002715;28;20054;-62
2023/12/02 05:11:53;;;;;;;14.18;8.25;;;0.30;99.90;;;;;;4977978;28;20057;-62
2023/12/02 05:14:20;;;;;;;17.95;8.55;;;0.20;99.90;;;;;;4982261;28;20105;-62
2023/12/02 05:16:47;;;;;;;14.25;7.82;;;0.20;99.90;;;;;;4995748;28;20035;-61
2023/12/02 05:19:13;;;;;;;13.70;8.27;;;0.20;99.90;;;;;;5008409;28;20043;-61
2023/12/02 05:21:40;;;;;;;14.63;8.25;;;0.20;99.90;;;;;;4994572;28;20046;-59
2023/12/02 05:24:08;;;;;;;14.88;7.70;;;0.20;99.90;;;;;;4986102;28;20420;-61
2023/12/02 05:26:35;;;;;;;14.77;8.43;;;0.30;99.90;;;;;;4990848;28;20061;-61
2023/12/02 05:29:03;;;;;;;13.65;8.25;;;0.20;99.90;;;;;;5011645;28;20038;-60
2023/12/02 05:31:29;;;;;;;;;;;0.20;99.90;;;;;;4985093;28;20500;-62
2023/12/02 05:33:56;;;;;;;14.23;7.70;;;0.30;99.90;;;;;;5000009;28;19922;-59
2023/12/02 05:36:23;;;;;;;14.02;7.80;;;0.30;99.90;;;;;;5004154;28;20061;-61
2023/12/02 05:38:50;;;;;;;14.82;8.52;;;0.30;99.90;;;;;;5001199;28;20065;-61
2023/12/02 05:41:17;;;;;;;10.60;6.72;;;0.30;99.90;;;;;;4967246;28;20395;-62
2023/12/02 05:43:44;;;;;;;;;;;0.30;99.90;;;;;;4989722;28;20056;-61
2023/12/02 05:46:16;;;;;;;17.67;9.45;;;0.30;99.90;;;;;;4999503;28;19980;-60
2023/12/02 05:48:44;;;;;;;17.40;9.20;;;0.20;99.90;;;;;;4975784;28;20043;-60
2023/12/02 05:51:12;;;;;;;16.02;9.00;;;0.30;99.90;;;;;;5008107;28;20077;-61
2023/12/02 05:53:42;;;;;;;19.15;8.23;;;0.30;99.90;;;;;;5007750;28;20045;-60
2023/12/02 05:56:09;;;;;;;18.38;9.25;;;0.30;99.90;;;;;;5007185;28;20062;-62
2023/12/02 05:58:36;;;;;;;16.77;8.90;;;0.30;99.90;;;;;;4982850;28;20045;-61
2023/12/02 06:01:02;;;;;;;15.55;8.98;;;0.30;99.90;;;;;;4995634;28;20057;-61
2023/12/02 06:03:29;;;;;;;17.25;9.38;;;0.30;99.90;;;;;;4986180;28;20038;-62
2023/12/02 06:05:56;;;;;;;18.13;8.80;;;0.30;99.90;;;;;;5003542;28;20101;-62
2023/12/02 06:08:23;;;;;;;19.52;10.35;;;0.30;99.90;;;;;;4980964;28;20206;-61
2023/12/02 06:10:51;;;;;;;18.67;10.10;;;0.30;99.90;;;;;;4992605;28;20097;-62
2023/12/02 06:13:23;;;;;;;11.75;6.70;;;0.30;99.90;;;;;;4993660;28;20039;-61
2023/12/02 06:15:50;;;;;;;17.20;9.70;;;0.30;99.90;;;;;;4986365;28;20415;-61
2023/12/02 06:18:17;;;;;;;18.05;10.00;;;0.20;99.90;;;;;;5005113;28;20384;-60
2023/12/02 06:20:44;;;;;;;20.25;10.48;;;0.20;99.90;;;;;;4999976;28;20045;-62
2023/12/02 06:23:11;;;;;;;19.27;9.90;;;0.30;99.90;;;;;;4998042;28;20488;-62
2023/12/02 06:25:38;;;;;;;16.75;9.57;;;0.20;99.90;;;;;;5004440;28;20484;-62
2023/12/02 06:28:05;;;;;;;16.70;8.40;;;0.30;99.90;;;;;;5018864;28;20048;-61
2023/12/02 06:30:31;;;;;;;21.05;11.30;;;0.30;99.90;;;;;;5019492;28;20040;-61
2023/12/02 06:32:58;;;;;;;21.75;10.52;;;0.20;99.90;;;;;;5008738;28;20399;-61
2023/12/02 06:35:25;;;;;;;27.88;11.57;;;0.20;99.90;;;;;;5023527;28;20037;-61
2023/12/02 06:37:52;;;;;;;22.27;11.65;;;0.30;99.90;;;;;;4999808;28;20162;-59
2023/12/02 06:40:19;;;;;;;20.80;11.30;;;0.30;99.90;;;;;;5030933;28;20037;-60
2023/12/02 06:42:46;;;;;;;22.92;11.30;;;0.30;99.90;;;;;;5003034;28;20046;-61
2023/12/02 06:45:12;;;;;;;23.67;12.25;;;0.30;99.90;;;;;;4997259;28;20483;-60
2023/12/02 06:47:39;;;;;;;26.00;12.15;;;0.30;99.90;;;;;;5026649;28;20041;-60
2023/12/02 06:50:07;;;;;;;28.20;13.48;;;0.30;99.90;;;;;;5023746;28;20048;-60
2023/12/02 06:52:33;;;;;;;27.02;13.18;;;0.30;99.90;;;;;;5023094;28;20041;-60
2023/12/02 06:55:00;;;;;;;27.92;13.40;;;0.30;99.90;;;;;;5013279;28;20045;-60
2023/12/02 06:57:31;;;;;;;27.88;12.88;;;0.30;99.90;;;;;;5025368;28;20033;-59
2023/12/02 06:59:58;;;;;;;31.55;12.40;;;0.30;99.90;;;;;;5028296;28;20136;-60
2023/12/02 07:02:25;;;;;;;26.80;13.07;;;0.30;99.90;;;;;;5022060;28;20041;-59
2023/12/02 07:04:52;;;;;;;28.92;13.15;;;0.20;99.90;;;;;;5006486;28;20046;-61
2023/12/02 07:07:18;;;;;;;26.50;12.07;;;0.30;99.90;;;;;;5015307;28;20041;-61
2023/12/02 07:09:45;;;;;;;22.60;11.63;;;0.20;99.90;;;;;;5016770;28;20055;-60
2023/12/02 07:12:12;;;;;;;24.52;11.65;;;0.20;99.90;;;;;;5029047;28;20068;-61
2023/12/02 07:14:39;;;;;;;24.25;11.77;;;0.20;99.90;;;;;;5006649;28;20099;-61
2023/12/02 07:17:06;;;;;;;27.00;13.68;;;0.20;99.90;;;;;;5005719;28;20052;-60
2023/12/02 07:19:32;;;;;;;26.42;13.20;;;0.20;99.90;;;;;;5005405;28;20125;-61
2023/12/02 07:21:59;;;;;;;27.45;13.18;;;0.20;99.90;;;;;;5011009;28;20454;-59
2023/12/02 07:24:26;;;;;;;25.75;13.18;;;0.20;99.90;;;;;;5026194;28;20443;-59
2023/12/02 07:26:55;;;;;;;24.80;13.07;;;0.20;99.90;;;;;;5006933;28;20173;-61
2023/12/02 07:29:22;;;;;;;24.40;12.23;;;0.20;99.90;;;;;;5029234;28;20100;-60
2023/12/02 07:32:09;;;;;;;25.15;11.75;;;0.30;99.90;;;;;;5014464;28;20116;-60
2023/12/02 07:34:36;;;;;;;23.63;11.48;;;0.30;99.90;;;;;;5023021;28;20466;-61
2023/12/02 07:37:03;;;;;;;21.02;11.65;;;0.40;99.90;;;;;;5021307;28;20069;-61
2023/12/02 07:39:30;;;;;;;27.50;12.50;;;0.30;99.90;;;;;;5014482;28;20496;-60
2023/12/02 07:41:57;;;;;;;23.20;12.30;;;0.30;99.90;;;;;;4997592;28;20054;-60
2023/12/02 07:44:25;;;;;;;24.95;11.45;;;0.30;99.90;;;;;;5025968;28;20467;-61
2023/12/02 07:46:51;;;;;;;24.73;11.98;;;0.30;99.90;;;;;;5015275;28;20046;-59
2023/12/02 07:49:18;;;;;;;25.27;12.48;;;0.30;99.90;;;;;;5010171;28;20520;-60
2023/12/02 07:51:48;;;;;;;22.75;12.43;;;0.40;99.90;;;;;;5026426;28;20087;-60
2023/12/02 07:54:15;;;;;;;21.77;10.48;;;0.30;99.90;;;;;;5017476;28;20041;-60
2023/12/02 07:56:41;;;;;;;27.02;12.80;;;0.40;99.90;;;;;;4995506;28;20050;-59
2023/12/02 07:59:08;;;;;;;25.80;13.10;;;0.40;99.90;;;;;;5023781;28;20041;-60
2023/12/02 08:01:35;;;;;;;21.67;11.98;;;0.40;99.90;;;;;;5029223;28;20104;-60
2023/12/02 08:04:02;;;;;;;21.23;10.82;;;0.40;99.90;;;;;;5014323;28;20104;-59
2023/12/02 08:06:29;;;;;;;;;;;0.40;99.90;;;;;;5033439;28;20033;-60
2023/12/02 08:08:56;;;;;;;25.30;11.32;;;0.40;99.90;;;;;;5033843;28;19925;-61
2023/12/02 08:11:23;;;;;;;22.33;10.30;;;0.30;99.90;;;;;;5012489;28;20045;-60
2023/12/02 08:13:50;;;;;;;20.80;10.60;;;0.30;99.90;;;;;;5006596;28;20064;-60
2023/12/02 08:16:17;;;;;;;20.55;10.48;;;0.30;99.90;;;;;;4988385;28;20049;-60
2023/12/02 08:18:44;;;;;;;16.23;8.05;;;0.30;99.90;;;;;;5010676;28;20053;-61
2023/12/02 08:21:11;;;;;;;18.65;10.23;;;0.30;99.90;;;;;;5005571;28;20476;-60
2023/12/02 08:23:38;;;;;;;19.33;10.45;;;0.30;99.90;;;;;;4999727;28;20034;-60
2023/12/02 08:26:05;;;;;;;;;;;0.30;99.90;;;;;;4983833;28;20125;-61
2023/12/02 08:28:32;;;;;;;20.08;10.57;;;0.30;99.90;;;;;;5002126;28;19933;-60
2023/12/02 08:30:59;;;;;;;20.58;10.52;;;0.40;99.90;;;;;;5024137;28;20045;-61
2023/12/02 08:33:25;;;;;;;21.00;10.57;;;0.40;99.90;;;;;;5018822;28;20034;-61
2023/12/02 08:35:52;;;;;;;21.08;11.35;;;0.30;99.90;;;;;;5019603;28;20046;-59
2023/12/02 08:38:19;;;;;;;21.45;10.40;;;0.30;99.90;;;;;;5021478;28;20513;-60
2023/12/02 08:40:48;;;;;;;25.55;11.80;;;0.30;99.90;;;;;;5007618;28;20057;-60
2023/12/02 08:43:15;;;;;;;27.50;12.02;;;0.30;99.90;;;;;;5022995;28;20030;-59
2023/12/02 08:45:42;;;;;;;22.50;10.85;;;0.20;99.90;;;;;;5018031;28;20052;-61
2023/12/02 08:48:09;;;;;;;19.55;10.93;;;0.20;99.90;;;;;;5016436;28;20036;-60
2023/12/02 08:50:35;;;;;;;25.65;11.63;;;0.20;99.90;;;;;;5012827;28;20040;-61
2023/12/02 08:53:03;;;;;;;24.63;10.45;;;0.20;99.90;;;;;;5024612;28;20069;-60
2023/12/02 08:55:30;;;;;;;25.58;12.50;;;0.10;99.90;;;;;;5019325;28;20041;-61
2023/12/02 08:57:57;;;;;;;25.73;11.73;;;0.10;99.90;;;;;;5020288;28;20073;-60
2023/12/02 09:00:23;;;;;;;27.88;12.63;;;0.20;99.90;;;;;;5013985;28;20042;-59
2023/12/02 09:02:50;;;;;;;27.40;13.13;;;0.10;99.90;;;;;;5015185;28;20547;-60
2023/12/02 09:05:19;;;;;;;27.70;12.75;;;0.10;99.90;;;;;;5020477;28;20048;-61
2023/12/02 09:07:45;;;;;;;23.90;12.48;;;0.20;99.90;;;;;;5019393;28;20048;-60
2023/12/02 09:10:12;;;;;;;24.50;12.52;;;0.20;99.90;;;;;;5003196;28;20049;-60
2023/12/02 09:12:39;;;;;;;25.77;13.45;;;0.20;99.90;;;;;;5024273;28;20045;-60
2023/12/02 09:15:16;;;;;;;25.35;13.00;;;0.20;99.90;;;;;;5021401;28;20033;-60
2023/12/02 09:18:02;;;;;;;30.20;13.77;;;0.20;99.90;;;;;;5022224;28;20046;-60
2023/12/02 09:20:48;;;;;;;29.73;14.98;;;0.10;99.90;;;;;;5016669;28;20315;-60
2023/12/02 09:23:17;;;;;;;31.90;15.63;;;0.00;99.90;;;;;;5017816;28;20104;-59
2023/12/02 09:25:45;;;;;;;37.88;15.90;;;-0.10;99.90;;;;;;5021306;28;20045;-60
2023/12/02 09:28:20;;;;;;;33.15;16.50;;;-0.10;99.90;;;;;;5017077;28;20125;-59
2023/12/02 09:31:07;;;;;;;36.72;16.25;;;-0.10;99.90;;;;;;5022180;28;20498;-59
2023/12/02 09:33:38;;;;;;;30.50;15.13;;;-0.20;99.90;;;;;;5020823;28;20483;-60
2023/12/02 09:36:06;;;;;;;32.67;15.98;;;-0.20;99.90;;;;;;5020794;28;20045;-59
2023/12/02 09:38:33;;;;;;;34.53;16.33;;;-0.20;99.90;;;;;;5025272;28;20053;-59
2023/12/02 09:41:24;;;;;;;39.20;17.95;;;-0.20;99.90;;;;;;5017567;28;20077;-60
2023/12/02 09:44:33;;;;;;;39.03;16.90;;;-0.30;99.90;;;;;;5021728;28;20383;-60
2023/12/02 09:47:12;;;;;;;40.88;17.20;;;-0.30;99.90;;;;;;4932428;29;20058;-60
2023/12/02 09:50:01;;;;;;;37.60;16.50;;;-0.30;99.90;;;;;;4930009;29;20056;-60
2023/12/02 09:52:47;;;;;;;37.55;15.68;;;-0.30;99.90;;;;;;4989090;28;20574;-60
2023/12/02 09:55:16;;;;;;;40.53;17.35;;;-0.30;99.90;;;;;;5016949;28;20052;-60
2023/12/02 09:58:06;;;;;;;42.38;16.95;;;-0.20;99.90;;;;;;5023957;28;20053;-60
2023/12/02 10:00:59;;;;;;;43.70;16.70;;;-0.20;99.90;;;;;;5003404;28;20041;-59
2023/12/02 10:03:49;;;;;;;39.13;16.90;;;-0.20;99.90;;;;;;5021005;28;20045;-60
2023/12/02 10:06:34;;;;;;;39.28;17.23;;;-0.20;99.90;;;;;;4979696;28;20514;-59
2023/12/02 10:09:31;;;;;;;42.40;16.02;;;-0.20;99.90;;;;;;5015013;28;20077;-60
2023/12/02 10:11:58;;;;;;;42.83;17.05;;;-0.30;99.90;;;;;;4996645;28;20052;-60
2023/12/02 10:14:28;;;;;;;31.05;13.55;;;-0.30;99.90;;;;;;5008082;28;20042;-59
2023/12/02 10:16:55;;;;;;;39.70;16.73;;;-0.20;99.90;;;;;;5016592;28;20038;-60
2023/12/02 10:19:36;;;;;;;42.50;17.48;;;-0.20;99.90;;;;;;5018274;28;20522;-60
2023/12/02 10:22:05;;;;;;;40.22;16.75;;;-0.20;99.90;;;;;;5017378;28;20052;-60
2023/12/02 10:25:00;;;;;;;38.35;16.42;;;-0.10;99.90;;;;;;4992674;28;20483;-60
2023/12/02 10:27:29;;;;;;;40.22;16.88;;;-0.10;99.90;;;;;;4995963;28;20132;-60
2023/12/02 10:30:09;;;;;;;32.83;16.48;;;0.00;99.90;;;;;;4998531;28;20133;-60
2023/12/02 10:33:15;;;;;;;43.13;17.65;;;0.00;99.90;;;;;;4996321;28;20116;-60
2023/12/02 10:35:46;;;;;;;37.75;16.63;;;0.00;99.90;;;;;;4998307;28;20049;-60
2023/12/02 10:38:17;;;;;;;34.45;15.90;;;0.00;99.90;;;;;;4998296;28;20186;-59
2023/12/02 10:40:56;;;;;;;39.45;16.42;;;0.00;99.90;;;;;;4997828;28;20557;-60
2023/12/02 10:43:33;;;;;;;33.95;15.50;;;-0.10;99.90;;;;;;5007255;28;20192;-60
2023/12/02 10:46:00;;;;;;;38.67;14.98;;;-0.20;99.90;;;;;;5020314;28;20481;-59
2023/12/02 10:48:28;;;;;;;34.97;15.05;;;-0.30;99.90;;;;;;5016853;28;20044;-60
2023/12/02 10:50:56;;;;;;;40.13;15.55;;;-0.30;99.90;;;;;;5020128;28;20046;-60
2023/12/02 10:53:24;;;;;;;35.30;15.18;;;-0.30;99.90;;;;;;5010766;28;20437;-59
2023/12/02 10:55:56;;;;;;;35.42;15.95;;;-0.30;99.90;;;;;;5016842;28;20053;-58
2023/12/02 10:58:25;;;;;;;33.05;15.55;;;-0.40;99.90;;;;;;5012767;28;20518;-58
2023/12/02 11:00:58;;;;;;;32.38;14.88;;;-0.30;99.90;;;;;;5015944;28;20056;-59
2023/12/02 11:03:34;;;;;;;35.63;15.32;;;-0.30;99.90;;;;;;5017158;28;20184;-60
2023/12/02 11:06:05;;;;;;;27.98;13.30;;;-0.30;99.90;;;;;;5009472;28;20466;-59
2023/12/02 11:08:49;;;;;;;29.95;13.82;;;-0.20;99.90;;;;;;5019406;28;20042;-60
2023/12/02 11:11:47;;;;;;;33.22;14.60;;;-0.20;99.90;;;;;;5012489;28;20376;-59
2023/12/02 11:14:17;;;;;;;31.33;14.18;;;-0.20;99.90;;;;;;4961393;28;20054;-59
2023/12/02 11:17:06;;;;;;;27.25;13.27;;;-0.30;99.90;;;;;;5006242;28;21125;-59
2023/12/02 11:19:45;;;;;;;29.73;13.57;;;-0.30;99.90;;;;;;5009941;28;20473;-59
2023/12/02 11:22:24;;;;;;;31.58;13.95;;;-0.20;99.90;;;;;;5026299;28;20038;-60
2023/12/02 11:25:24;;;;;;;28.35;13.27;;;-0.10;99.90;;;;;;5012718;28;20069;-60
2023/12/02 11:28:09;;;;;;;31.45;13.38;;;-0.10;99.90;;;;;;5011209;28;20103;-61
2023/12/02 11:30:58;;;;;;;31.80;12.82;;;-0.10;99.90;;;;;;5019366;28;20202;-59
2023/12/02 11:33:56;;;;;;;28.33;12.57;;;-0.10;99.90;;;;;;5010786;28;20561;-61
2023/12/02 11:36:45;;;;;;;25.80;12.45;;;-0.10;99.90;;;;;;4990822;28;20041;-60
2023/12/02 11:39:38;;;;;;;25.95;11.18;;;-0.10;99.90;;;;;;5008995;28;20049;-61
2023/12/02 11:42:18;;;;;;;24.95;11.90;;;-0.10;99.90;;;;;;5008539;28;20042;-60
2023/12/02 11:45:24;;;;;;;24.67;12.48;;;-0.10;99.90;;;;;;5002383;28;20403;-61
2023/12/02 11:48:03;;;;;;;28.35;13.32;;;-0.10;99.90;;;;;;4979227;28;20054;-59
2023/12/02 11:50:38;;;;;;;24.55;11.63;;;-0.10;99.90;;;;;;5011475;28;20053;-59
2023/12/02 11:53:18;;;;;;;28.88;11.15;;;0.00;99.90;;;;;;5014571;28;20084;-60
2023/12/02 11:56:08;;;;;;;23.02;11.45;;;0.00;99.90;;;;;;5018562;28;20128;-60
2023/12/02 11:59:15;;;;;;;24.98;11.70;;;0.00;99.90;;;;;;5018630;28;20069;-60
2023/12/02 12:02:33;;;;;;;27.27;12.25;;;-0.10;99.90;;;;;;5015449;28;20055;-61
2023/12/02 12:05:18;;;;;;;25.25;11.55;;;-0.10;99.90;;;;;;4963741;28;20062;-61
2023/12/02 12:07:52;;;;;;;25.90;12.15;;;-0.10;99.90;;;;;;5009559;28;20121;-60
2023/12/02 12:10:33;;;;;;;26.83;12.13;;;-0.20;99.90;;;;;;5004681;28;20146;-60
2023/12/02 12:13:02;;;;;;;23.67;11.85;;;-0.10;99.90;;;;;;5009348;28;20129;-60
2023/12/02 12:15:30;;;;;;;29.45;11.75;;;-0.10;99.90;;;;;;4997722;28;20510;-61
2023/12/02 12:17:57;;;;;;;25.02;11.80;;;-0.10;99.90;;;;;;5009923;28;20060;-61
2023/12/02 12:20:29;;;;;;;24.52;11.25;;;-0.10;99.90;;;;;;4997115;28;20088;-61
2023/12/02 12:22:56;;;;;;;24.60;11.07;;;-0.10;99.90;;;;;;5015777;28;20396;-60
2023/12/02 12:25:28;;;;;;;29.80;12.32;;;-0.10;99.90;;;;;;5016138;28;20642;-61
2023/12/02 12:28:05;;;;;;;23.73;11.57;;;-0.10;99.90;;;;;;5020188;28;20594;-60
2023/12/02 12:30:47;;;;;;;23.63;11.07;;;0.00;99.90;;;;;;5014134;28;20042;-61
2023/12/02 12:33:16;;;;;;;25.58;12.43;;;-0.10;99.90;;;;;;5010855;28;20552;-60
2023/12/02 12:35:43;;;;;;;24.85;11.60;;;-0.10;99.90;;;;;;5013755;28;20048;-60
2023/12/02 12:38:10;;;;;;;24.75;11.90;;;-0.20;99.90;;;;;;5013402;28;20077;-61
2023/12/02 12:40:39;;;;;;;26.60;11.77;;;-0.30;99.90;;;;;;5014404;28;20060;-61
2023/12/02 12:43:08;;;;;;;22.63;11.23;;;-0.40;99.90;;;;;;4996330;28;20046;-61
2023/12/02 12:45:38;;;;;;;25.05;11.30;;;-0.30;99.90;;;;;;5008096;28;20475;-60
2023/12/02 12:48:06;;;;;;;32.90;11.90;;;-0.40;99.90;;;;;;5013811;28;20057;-61
2023/12/02 12:50:36;;;;;;;28.85;12.32;;;-0.30;99.90;;;;;;5025801;28;20038;-61
2023/12/02 12:53:10;;;;;;;33.92;12.10;;;-0.40;99.90;;;;;;5026044;28;20569;-61
2023/12/02 12:55:42;;;;;;;22.55;10.85;;;-0.40;99.90;;;;;;5019433;28;20077;-61
2023/12/02 12:58:14;;;;;;;26.70;11.98;;;-0.40;99.90;;;;;;5017627;28;20455;-61
2023/12/02 13:00:50;;;;;;;25.60;11.07;;;-0.40;99.90;;;;;;5007564;28;20541;-61